Time;durP1;ratioP1;P1;durP2;ratioP2;P2;SDS_P1;SDS_P2;PMS_P1;PMS_P2;Temp;Humidity;BMP_temperature;BMP_pressure;BME280_temperature;BME280_humidity;BME280_pressure;Samples;Min_cycle;Max_cycle;Signal;HPM_P1;HPM_P2
2022/04/14 00:01:21;;;;;;;0.10;0.10;;;10.20;1.00;12.80;88045.00;;;;5015296;28;20220;-71
2022/04/14 00:03:49;;;;;;;0.10;0.10;;;10.30;1.00;12.80;88045.00;;;;5013514;28;20230;-71
2022/04/14 00:06:17;;;;;;;0.10;0.10;;;10.40;1.00;12.80;88045.00;;;;5013524;28;20196;-71
2022/04/14 00:08:45;;;;;;;0.10;0.10;;;10.30;1.00;12.80;88045.00;;;;5013536;28;20192;-71
2022/04/14 00:11:13;;;;;;;0.10;0.10;;;10.50;1.00;12.80;88045.00;;;;5015520;28;20268;-71
2022/04/14 00:13:42;;;;;;;0.10;0.10;;;10.50;1.00;12.80;88045.00;;;;5017044;28;20234;-71
2022/04/14 00:16:10;;;;;;;0.10;0.10;;;10.50;1.00;12.80;88045.00;;;;5013832;28;20199;-71
2022/04/14 00:18:38;;;;;;;0.10;0.10;;;10.30;1.00;12.80;88045.00;;;;5008597;28;20192;-71
2022/04/14 00:21:06;;;;;;;0.10;0.10;;;10.20;1.00;12.80;88045.00;;;;5005253;28;20235;-71
2022/04/14 00:23:34;;;;;;;0.10;0.10;;;10.10;1.00;12.80;88045.00;;;;5005704;28;20211;-71
2022/04/14 00:26:02;;;;;;;0.10;0.10;;;10.20;1.00;12.80;88045.00;;;;5013443;28;20199;-71
2022/04/14 00:28:30;;;;;;;0.10;0.10;;;10.00;1.00;12.80;88045.00;;;;5017285;28;20191;-71
2022/04/14 00:30:59;;;;;;;0.10;0.10;;;10.00;1.00;12.80;88045.00;;;;5002075;28;20232;-71
2022/04/14 00:33:27;;;;;;;0.10;0.10;;;9.90;1.00;12.80;88045.00;;;;4993805;28;20224;-71
2022/04/14 00:35:56;;;;;;;0.10;0.10;;;9.80;1.00;12.80;88045.00;;;;4993168;28;20200;-71
2022/04/14 00:38:24;;;;;;;0.10;0.10;;;9.70;1.00;12.80;88045.00;;;;5021292;28;20192;-71
2022/04/14 00:40:52;;;;;;;0.10;0.10;;;9.80;1.00;12.80;88045.00;;;;5001449;28;20277;-71
2022/04/14 00:43:21;;;;;;;0.10;0.10;;;9.80;1.00;12.80;88045.00;;;;5011492;28;20282;-71
2022/04/14 00:45:50;;;;;;;0.10;0.10;;;9.80;1.00;12.80;88045.00;;;;5012801;28;20187;-72
2022/04/14 00:48:20;;;;;;;0.10;0.10;;;9.70;1.00;12.80;88045.00;;;;5006164;28;20224;-71
2022/04/14 00:50:48;;;;;;;0.10;0.10;;;9.80;1.00;12.80;88045.00;;;;4993279;28;20224;-71
2022/04/14 00:53:16;;;;;;;0.00;0.00;;;9.90;1.00;12.80;88045.00;;;;5004327;28;20704;-71
2022/04/14 00:55:44;;;;;;;0.10;0.10;;;9.90;1.00;12.80;88045.00;;;;5016852;28;20322;-70
2022/04/14 00:58:12;;;;;;;0.10;0.10;;;9.80;1.00;12.80;88045.00;;;;5012820;28;20195;-70
2022/04/14 01:00:40;;;;;;;0.10;0.10;;;9.70;1.00;12.80;88045.00;;;;4995570;28;20227;-70
2022/04/14 01:03:09;;;;;;;0.10;0.10;;;9.60;1.00;12.80;88045.00;;;;5012594;28;20210;-71
2022/04/14 01:05:40;;;;;;;0.10;0.10;;;9.40;1.00;12.80;88045.00;;;;5012407;28;20200;-71
2022/04/14 01:08:09;;;;;;;0.10;0.10;;;9.20;1.00;12.80;88045.00;;;;5003501;28;20211;-71
2022/04/14 01:10:40;;;;;;;0.10;0.10;;;9.10;1.00;12.80;88045.00;;;;5020607;28;20211;-71
2022/04/14 01:13:10;;;;;;;0.10;0.10;;;9.00;1.00;12.80;88045.00;;;;5000731;28;20254;-68
2022/04/14 01:15:39;;;;;;;0.10;0.10;;;8.90;72.70;12.80;88045.00;;;;4992484;28;20192;-68
2022/04/14 01:18:07;;;;;;;0.10;0.10;;;8.90;84.50;12.80;88045.00;;;;4992905;28;20207;-69
2022/04/14 01:20:36;;;;;;;0.10;0.10;;;9.10;69.70;12.80;88045.00;;;;4992981;28;20222;-69
2022/04/14 01:23:08;;;;;;;0.10;0.10;;;9.10;56.50;12.80;88045.00;;;;4992722;28;20223;-69
2022/04/14 01:25:38;;;;;;;0.10;0.10;;;9.20;57.50;12.80;88045.00;;;;5003507;28;20665;-71
2022/04/14 01:28:07;;;;;;;0.00;0.00;;;9.20;43.60;12.80;88045.00;;;;5016723;28;20199;-71
2022/04/14 01:30:37;;;;;;;0.10;0.10;;;9.20;4.00;12.80;88045.00;;;;5011901;28;20215;-71
2022/04/14 01:33:05;;;;;;;0.10;0.10;;;9.20;15.80;12.80;88045.00;;;;5010653;28;20223;-71
2022/04/14 01:35:33;;;;;;;0.10;0.10;;;9.20;11.80;12.80;88045.00;;;;5011941;28;20253;-71
2022/04/14 01:38:01;;;;;;;0.03;0.03;;;9.20;1.00;12.80;88045.00;;;;5018605;28;20203;-70
2022/04/14 01:40:29;;;;;;;0.10;0.10;;;9.30;1.00;12.80;88045.00;;;;5011707;28;20219;-68
2022/04/14 01:42:58;;;;;;;0.10;0.10;;;9.20;1.00;12.80;88045.00;;;;5011019;28;20192;-68
2022/04/14 01:45:27;;;;;;;0.10;0.10;;;9.20;1.00;12.80;88045.00;;;;5012128;28;20199;-71
2022/04/14 01:47:55;;;;;;;0.10;0.10;;;9.10;1.00;12.80;88045.00;;;;5011874;28;20200;-71
2022/04/14 01:50:23;;;;;;;0.10;0.10;;;8.80;1.00;12.80;88045.00;;;;5012560;28;20211;-71
2022/04/14 01:52:51;;;;;;;0.10;0.10;;;8.60;41.70;12.80;88045.00;;;;5008431;28;20212;-71
2022/04/14 01:55:19;;;;;;;0.10;0.10;;;8.50;99.90;12.80;88045.00;;;;5002864;28;20195;-69
2022/04/14 01:57:48;;;;;;;0.00;0.00;;;8.50;99.90;12.80;88045.00;;;;5011991;28;20208;-71
2022/04/14 02:00:18;;;;;;;0.10;0.10;;;8.50;99.90;12.80;88045.00;;;;5012209;28;20290;-71
2022/04/14 02:02:46;;;;;;;0.10;0.10;;;8.70;99.90;12.80;88045.00;;;;5012661;28;20297;-71
2022/04/14 02:05:14;;;;;;;0.10;0.10;;;8.70;99.90;12.80;88045.00;;;;5011882;28;20662;-71
2022/04/14 02:07:42;;;;;;;0.10;0.10;;;8.60;99.90;12.80;88045.00;;;;5000460;28;20614;-70
2022/04/14 02:10:12;;;;;;;0.10;0.10;;;8.70;99.90;12.80;88045.00;;;;5008166;28;20231;-71
2022/04/14 02:12:40;;;;;;;0.10;0.10;;;8.70;14.20;12.80;88045.00;;;;5013437;28;20219;-71
2022/04/14 02:15:10;;;;;;;0.10;0.10;;;8.70;1.00;12.80;88045.00;;;;4992241;28;20279;-71
2022/04/14 02:17:39;;;;;;;0.10;0.10;;;8.60;6.50;12.80;88045.00;;;;4991825;28;20200;-71
2022/04/14 02:20:08;;;;;;;0.10;0.10;;;8.50;68.70;12.80;88045.00;;;;4991841;28;20212;-71
2022/04/14 02:22:40;;;;;;;0.10;0.10;;;8.40;99.90;12.80;88045.00;;;;4991814;28;20215;-72
2022/04/14 02:25:10;;;;;;;0.10;0.10;;;8.40;99.90;12.80;88045.00;;;;5001830;28;20213;-72
2022/04/14 02:27:38;;;;;;;0.10;0.10;;;8.40;99.90;12.80;88045.00;;;;5019224;28;20197;-71
2022/04/14 02:30:08;;;;;;;0.10;0.10;;;8.60;99.90;12.80;88045.00;;;;4991805;28;20634;-72
2022/04/14 02:32:36;;;;;;;0.00;0.00;;;8.70;99.90;12.80;88045.00;;;;4991816;28;20196;-72
2022/04/14 02:35:06;;;;;;;0.05;0.05;;;8.60;60.30;12.80;88045.00;;;;4991894;28;20200;-71
2022/04/14 02:37:34;;;;;;;0.10;0.10;;;8.50;75.90;12.80;88045.00;;;;5002534;28;20199;-71
2022/04/14 02:40:03;;;;;;;0.10;0.10;;;8.60;74.40;12.80;88045.00;;;;5013136;28;20771;-71
2022/04/14 02:42:31;;;;;;;0.10;0.10;;;8.40;62.10;12.80;88045.00;;;;5011403;28;20180;-72
2022/04/14 02:44:59;;;;;;;0.10;0.10;;;8.10;99.90;12.80;88045.00;;;;4997162;28;20682;-71
2022/04/14 02:47:27;;;;;;;0.10;0.10;;;8.10;99.90;12.80;88045.00;;;;4991808;28;20204;-71
2022/04/14 02:49:54;;;;;;;0.10;0.10;;;8.00;99.90;12.80;88045.00;;;;4991497;28;20223;-71
2022/04/14 02:52:24;;;;;;;0.10;0.10;;;8.10;99.90;12.80;88045.00;;;;4996028;28;20200;-71
2022/04/14 02:54:52;;;;;;;0.10;0.10;;;8.10;99.90;12.80;88045.00;;;;5022624;28;20291;-71
2022/04/14 02:57:24;;;;;;;0.10;0.10;;;8.00;99.90;12.80;88045.00;;;;5014839;28;20242;-71
2022/04/14 02:59:52;;;;;;;0.10;0.10;;;8.00;99.90;12.80;88045.00;;;;5014655;28;21945;-71
2022/04/14 03:02:20;;;;;;;0.00;0.00;;;8.10;99.90;12.80;88045.00;;;;5015226;28;20219;-71
2022/04/14 03:04:48;;;;;;;0.10;0.10;;;8.10;99.90;12.80;88045.00;;;;5014368;28;20219;-71
2022/04/14 03:07:17;;;;;;;0.10;0.10;;;8.10;99.90;12.80;88045.00;;;;5014457;28;20198;-71
2022/04/14 03:09:46;;;;;;;0.10;0.10;;;8.10;27.90;12.80;88045.00;;;;5012239;28;20662;-71
2022/04/14 03:12:14;;;;;;;0.10;0.10;;;7.80;90.30;12.80;88045.00;;;;5017712;28;20194;-71
2022/04/14 03:14:43;;;;;;;0.10;0.10;;;8.00;68.30;12.80;88045.00;;;;5033930;28;20704;-71
2022/04/14 03:17:11;;;;;;;0.10;0.10;;;7.90;7.40;12.80;88045.00;;;;5022352;28;20723;-71
2022/04/14 03:19:39;;;;;;;0.10;0.10;;;7.90;1.00;12.80;88045.00;;;;5013010;28;20211;-71
2022/04/14 03:22:07;;;;;;;0.10;0.10;;;8.00;1.00;12.80;88045.00;;;;5014284;28;20204;-71
2022/04/14 03:24:35;;;;;;;0.10;0.10;;;8.00;1.00;12.80;88045.00;;;;5013109;28;20262;-71
2022/04/14 03:27:05;;;;;;;0.10;0.10;;;8.00;1.00;12.80;88045.00;;;;5002019;28;20211;-71
2022/04/14 03:29:34;;;;;;;0.10;0.10;;;7.90;1.00;12.80;88045.00;;;;5018703;28;20606;-71
2022/04/14 03:32:02;;;;;;;0.10;0.10;;;7.70;8.60;12.80;88045.00;;;;5013903;28;20208;-71
2022/04/14 03:34:30;;;;;;;0.10;0.10;;;7.50;99.90;12.80;88045.00;;;;5003929;28;20585;-71
2022/04/14 03:36:58;;;;;;;0.10;0.10;;;7.40;99.90;12.80;88045.00;;;;5003701;28;20192;-72
2022/04/14 03:39:30;;;;;;;0.10;0.10;;;7.50;99.90;12.80;88045.00;;;;5025937;28;20199;-72
2022/04/14 03:41:57;;;;;;;0.10;0.10;;;7.50;99.90;12.80;88045.00;;;;5017909;28;20235;-73
2022/04/14 03:44:27;;;;;;;0.10;0.10;;;7.60;99.90;12.80;88045.00;;;;5006345;28;20199;-72
2022/04/14 03:46:55;;;;;;;0.10;0.10;;;7.60;99.90;12.80;88045.00;;;;5024925;28;20219;-72
2022/04/14 03:49:23;;;;;;;0.10;0.10;;;7.80;99.90;12.80;88045.00;;;;4995132;28;20708;-72
2022/04/14 03:51:54;;;;;;;0.10;0.10;;;7.90;99.90;12.80;88045.00;;;;4994307;28;20219;-72
2022/04/14 03:54:22;;;;;;;0.10;0.10;;;7.90;1.00;12.80;88045.00;;;;5000533;28;20216;-71
2022/04/14 03:56:50;;;;;;;0.10;0.10;;;7.80;1.00;12.80;88045.00;;;;5024348;28;20209;-71
2022/04/14 03:59:18;;;;;;;0.10;0.10;;;7.50;61.40;12.80;88045.00;;;;5032436;28;20664;-71
2022/04/14 04:01:47;;;;;;;0.10;0.10;;;7.20;99.90;12.80;88045.00;;;;4994350;28;20723;-71
2022/04/14 04:04:16;;;;;;;0.10;0.10;;;7.10;99.90;12.80;88045.00;;;;4995399;28;20200;-71
2022/04/14 04:06:45;;;;;;;0.20;0.20;;;7.10;99.90;12.80;88045.00;;;;5011003;28;20188;-71
2022/04/14 04:09:13;;;;;;;0.10;0.10;;;7.20;99.90;12.80;88045.00;;;;4995979;28;20196;-72
2022/04/14 04:11:41;;;;;;;0.10;0.10;;;7.20;99.90;12.80;88045.00;;;;5016644;28;20226;-71
2022/04/14 04:14:10;;;;;;;0.10;0.10;;;7.20;99.90;12.80;88045.00;;;;5012904;28;20227;-71
2022/04/14 04:16:38;;;;;;;0.10;0.10;;;7.40;99.90;12.80;88045.00;;;;5013370;28;20239;-71
2022/04/14 04:19:07;;;;;;;0.10;0.10;;;7.40;99.90;12.80;88045.00;;;;5013289;28;20196;-71
2022/04/14 04:21:35;;;;;;;0.10;0.10;;;7.50;99.90;12.80;88045.00;;;;5013427;28;20216;-72
2022/04/14 04:24:04;;;;;;;0.10;0.10;;;7.70;99.90;12.80;88045.00;;;;5007357;28;20204;-72
2022/04/14 04:26:32;;;;;;;0.10;0.10;;;8.00;99.90;12.80;88045.00;;;;4996484;28;20319;-72
2022/04/14 04:29:00;;;;;;;0.10;0.10;;;8.10;99.90;12.80;88045.00;;;;5018906;28;20215;-72
2022/04/14 04:31:28;;;;;;;0.10;0.10;;;8.30;99.90;12.80;88045.00;;;;5013385;28;20402;-72
2022/04/14 04:33:56;;;;;;;0.10;0.10;;;8.40;99.90;12.80;88045.00;;;;5011586;28;20286;-72
2022/04/14 04:36:25;;;;;;;0.10;0.10;;;8.60;1.00;12.80;88045.00;;;;5011822;28;20199;-72
2022/04/14 04:38:53;;;;;;;0.10;0.10;;;8.50;1.00;12.80;88045.00;;;;5021229;28;20196;-72
2022/04/14 04:41:21;;;;;;;0.10;0.10;;;8.50;1.00;12.80;88045.00;;;;5007852;28;20267;-73
2022/04/14 04:43:49;;;;;;;0.10;0.10;;;8.40;1.00;12.80;88045.00;;;;5009225;28;20261;-72
2022/04/14 04:46:17;;;;;;;0.10;0.10;;;8.40;1.00;12.80;88045.00;;;;5002713;28;20288;-73
2022/04/14 04:48:45;;;;;;;0.10;0.10;;;8.50;1.00;12.80;88045.00;;;;4993822;28;20193;-72
2022/04/14 04:51:13;;;;;;;0.10;0.10;;;8.40;1.00;12.80;88045.00;;;;4994863;28;20588;-72
2022/04/14 04:53:42;;;;;;;0.10;0.10;;;8.40;1.00;12.80;88045.00;;;;5006239;28;20664;-72
2022/04/14 04:56:10;;;;;;;0.10;0.10;;;8.40;1.00;12.80;88045.00;;;;5031903;28;20645;-73
2022/04/14 04:58:38;;;;;;;0.10;0.10;;;8.50;1.00;12.80;88045.00;;;;5017722;28;20189;-72
2022/04/14 05:01:06;;;;;;;0.10;0.10;;;8.50;1.00;12.80;88045.00;;;;4993198;28;20696;-73
2022/04/14 05:03:34;;;;;;;0.10;0.10;;;8.50;1.00;12.80;88045.00;;;;4994118;28;20224;-73
2022/04/14 05:06:03;;;;;;;0.10;0.10;;;8.60;1.00;12.80;88045.00;;;;4993992;28;20204;-72
2022/04/14 05:08:31;;;;;;;0.10;0.10;;;8.70;1.00;12.80;88045.00;;;;4993816;28;20203;-72
2022/04/14 05:11:08;;;;;;;0.10;0.10;;;8.80;1.00;12.80;88045.00;;;;4994839;28;20251;-72
2022/04/14 05:13:36;;;;;;;0.10;0.10;;;8.80;1.00;12.80;88045.00;;;;4996890;28;20204;-72
2022/04/14 05:16:06;;;;;;;0.10;0.10;;;8.80;1.00;12.80;88045.00;;;;4996807;28;20524;-72
2022/04/14 05:18:34;;;;;;;0.05;0.05;;;8.90;1.00;12.80;88045.00;;;;4993568;28;20224;-72
2022/04/14 05:21:03;;;;;;;0.10;0.10;;;8.90;1.00;12.80;88045.00;;;;4993263;28;20248;-72
2022/04/14 05:23:31;;;;;;;0.10;0.10;;;8.80;1.00;12.80;88045.00;;;;4995621;28;20192;-72
2022/04/14 05:25:59;;;;;;;0.00;0.00;;;9.00;6.50;12.80;88045.00;;;;4997440;28;20212;-72
2022/04/14 05:28:28;;;;;;;0.10;0.10;;;9.00;1.00;12.80;88045.00;;;;4997750;28;20196;-72
2022/04/14 05:30:56;;;;;;;0.10;0.10;;;9.10;1.00;12.80;88045.00;;;;4995262;28;20686;-71
2022/04/14 05:33:25;;;;;;;0.10;0.10;;;9.10;1.00;12.80;88045.00;;;;4996753;28;20295;-72
2022/04/14 05:35:52;;;;;;;0.10;0.10;;;9.00;1.00;12.80;88045.00;;;;5015020;28;20212;-72
2022/04/14 05:38:21;;;;;;;0.10;0.10;;;9.10;32.20;12.80;88045.00;;;;5008343;28;20534;-72
2022/04/14 05:40:48;;;;;;;0.10;0.10;;;9.10;27.90;12.80;88045.00;;;;4999996;28;20293;-72
2022/04/14 05:43:17;;;;;;;0.00;0.00;;;9.10;1.00;12.80;88045.00;;;;5003050;28;20196;-72
2022/04/14 05:45:48;;;;;;;0.10;0.10;;;9.10;1.00;12.80;88045.00;;;;4991570;28;20196;-72
2022/04/14 05:48:18;;;;;;;0.10;0.10;;;9.00;1.00;12.80;88045.00;;;;5002512;28;20230;-72
2022/04/14 05:50:49;;;;;;;0.10;0.10;;;9.10;1.00;12.80;88045.00;;;;5012179;28;20211;-72
2022/04/14 05:53:26;;;;;;;0.10;0.10;;;9.10;1.00;12.80;88045.00;;;;5012447;28;20202;-72
2022/04/14 05:55:55;;;;;;;0.10;0.10;;;9.10;22.60;12.80;88045.00;;;;4998228;28;20701;-71
2022/04/14 05:58:23;;;;;;;0.10;0.10;;;9.20;2.40;12.80;88045.00;;;;4992516;28;20193;-72
2022/04/14 06:00:52;;;;;;;0.10;0.10;;;9.10;1.00;12.80;88045.00;;;;4992585;28;20223;-72
2022/04/14 06:03:21;;;;;;;0.10;0.10;;;8.90;42.70;12.80;88045.00;;;;5009535;28;20199;-71
2022/04/14 06:05:49;;;;;;;0.10;0.10;;;8.90;23.10;12.80;88045.00;;;;5012019;28;20203;-72
2022/04/14 06:08:17;;;;;;;0.10;0.10;;;8.80;18.80;12.80;88045.00;;;;4994893;28;20203;-71
2022/04/14 06:10:45;;;;;;;0.10;0.10;;;8.70;10.00;12.80;88045.00;;;;4992097;28;20709;-72
2022/04/14 06:13:13;;;;;;;0.10;0.10;;;8.70;58.60;12.80;88045.00;;;;4996353;28;20189;-71
2022/04/14 06:15:41;;;;;;;0.10;0.10;;;8.80;72.60;12.80;88045.00;;;;4992972;28;20726;-72
2022/04/14 06:18:11;;;;;;;0.10;0.10;;;8.80;14.20;12.80;88045.00;;;;4993315;28;20194;-71
2022/04/14 06:20:39;;;;;;;0.10;0.10;;;8.80;51.20;12.80;88045.00;;;;4992619;28;20222;-71
2022/04/14 06:23:08;;;;;;;0.10;0.10;;;8.90;61.90;12.80;88045.00;;;;4993111;28;20211;-71
2022/04/14 06:25:36;;;;;;;0.10;0.10;;;9.00;69.90;12.80;88045.00;;;;4993147;28;20204;-72
2022/04/14 06:28:07;;;;;;;0.10;0.10;;;9.10;69.50;12.80;88045.00;;;;5013069;28;20192;-71
2022/04/14 06:30:35;;;;;;;0.10;0.10;;;9.20;29.20;12.80;88045.00;;;;5015815;28;20204;-71
2022/04/14 06:33:05;;;;;;;0.10;0.10;;;9.30;15.00;12.80;88045.00;;;;5014129;28;20196;-71
2022/04/14 06:35:35;;;;;;;0.10;0.10;;;9.40;10.90;12.80;88045.00;;;;5015201;28;20220;-69
2022/04/14 06:38:03;;;;;;;0.15;0.15;;;9.60;1.00;12.80;88045.00;;;;5015802;28;20200;-71
2022/04/14 06:40:31;;;;;;;0.10;0.10;;;9.70;1.00;12.80;88045.00;;;;5015259;28;20573;-70
2022/04/14 06:43:02;;;;;;;0.10;0.10;;;9.80;1.00;12.80;88045.00;;;;5003420;28;20298;-70
2022/04/14 06:45:32;;;;;;;0.10;0.10;;;10.00;1.00;12.80;88045.00;;;;5010798;28;20203;-70
2022/04/14 06:48:01;;;;;;;0.10;0.10;;;10.10;1.00;12.80;88045.00;;;;5017510;28;20597;-72
2022/04/14 06:50:29;;;;;;;0.10;0.10;;;10.30;1.00;12.80;88045.00;;;;5018099;28;20279;-71
2022/04/14 06:52:58;;;;;;;0.10;0.10;;;10.40;1.00;12.80;88045.00;;;;5017106;28;20226;-71
2022/04/14 06:55:27;;;;;;;0.10;0.10;;;10.50;1.00;12.80;88045.00;;;;5015723;28;20208;-71
2022/04/14 06:57:56;;;;;;;0.10;0.10;;;10.60;1.00;12.80;88045.00;;;;5014009;28;20204;-71
2022/04/14 07:00:25;;;;;;;0.10;0.10;;;10.70;1.00;12.80;88045.00;;;;5009960;28;20223;-71
2022/04/14 07:02:55;;;;;;;0.10;0.10;;;10.90;1.00;12.80;88045.00;;;;5003204;28;20217;-71
2022/04/14 07:05:24;;;;;;;0.10;0.10;;;11.20;1.00;12.80;88045.00;;;;5015402;28;20207;-70
2022/04/14 07:07:53;;;;;;;0.10;0.10;;;11.40;1.00;12.80;88045.00;;;;5014937;28;20191;-71
2022/04/14 07:10:22;;;;;;;0.00;0.00;;;11.70;1.00;12.80;88045.00;;;;5015902;28;20228;-70
2022/04/14 07:12:50;;;;;;;0.10;0.10;;;11.80;1.00;12.80;88045.00;;;;4999008;28;20200;-70
2022/04/14 07:15:18;;;;;;;0.10;0.10;;;12.00;1.00;12.80;88045.00;;;;5011542;28;20231;-70
2022/04/14 07:17:46;;;;;;;0.10;0.10;;;12.10;1.00;12.80;88045.00;;;;5014720;28;20192;-70
2022/04/14 07:20:14;;;;;;;0.10;0.10;;;12.20;1.00;12.80;88045.00;;;;5016386;28;20234;-70
2022/04/14 07:22:43;;;;;;;0.10;0.10;;;12.30;1.00;12.80;88045.00;;;;5016845;28;20723;-70
2022/04/14 07:25:12;;;;;;;0.10;0.10;;;12.40;1.00;12.80;88045.00;;;;5016996;28;20246;-70
2022/04/14 07:27:42;;;;;;;0.10;0.10;;;12.50;1.00;12.80;88045.00;;;;5000821;28;20283;-70
2022/04/14 07:30:11;;;;;;;0.10;0.10;;;12.70;1.00;12.80;88045.00;;;;5013330;28;20577;-70
2022/04/14 07:32:43;;;;;;;0.10;0.10;;;12.80;1.00;12.80;88045.00;;;;5017356;28;20208;-70
2022/04/14 07:35:11;;;;;;;0.10;0.10;;;12.90;1.00;12.80;88045.00;;;;5016152;28;20257;-70
2022/04/14 07:37:39;;;;;;;0.10;0.10;;;13.00;1.00;12.80;88045.00;;;;5016478;28;20220;-70
2022/04/14 07:40:09;;;;;;;0.10;0.10;;;13.10;1.00;12.80;88045.00;;;;5015405;28;20224;-70
2022/04/14 07:42:39;;;;;;;0.10;0.10;;;13.20;1.00;12.80;88045.00;;;;5015163;28;20192;-70
2022/04/14 07:45:11;;;;;;;0.00;0.00;;;13.20;1.00;12.80;88045.00;;;;5014483;28;20200;-70
2022/04/14 07:47:41;;;;;;;0.10;0.10;;;13.30;1.00;12.80;88045.00;;;;5014424;28;20242;-71
2022/04/14 07:50:10;;;;;;;0.10;0.10;;;13.50;1.00;12.80;88045.00;;;;5014431;28;20220;-70
2022/04/14 07:52:47;;;;;;;0.10;0.10;;;13.70;1.00;12.80;88045.00;;;;5014528;28;20196;-70
2022/04/14 07:55:21;;;;;;;0.10;0.10;;;13.90;1.00;12.80;88045.00;;;;5015034;28;20290;-70
2022/04/14 07:57:50;;;;;;;0.10;0.10;;;14.00;1.00;12.80;88045.00;;;;5014619;28;20223;-72
2022/04/14 08:00:24;;;;;;;0.10;0.10;;;14.00;1.00;12.80;88045.00;;;;5014868;28;20716;-71
2022/04/14 08:02:54;;;;;;;0.10;0.10;;;14.00;1.00;12.80;88045.00;;;;5014493;28;20192;-71
2022/04/14 08:05:27;;;;;;;0.10;0.10;;;14.10;1.00;12.80;88045.00;;;;5014422;28;20658;-72
2022/04/14 08:07:55;;;;;;;0.10;0.10;;;14.20;99.90;12.80;88045.00;;;;5014507;28;20578;-72
2022/04/14 08:10:23;;;;;;;0.10;0.10;;;14.30;99.90;12.80;88045.00;;;;5014507;28;20220;-71
2022/04/14 08:12:51;;;;;;;0.10;0.10;;;14.40;1.00;12.80;88045.00;;;;5016009;28;20192;-72
2022/04/14 08:15:21;;;;;;;0.00;0.00;;;14.50;14.50;12.80;88045.00;;;;5015828;28;20196;-72
2022/04/14 08:17:49;;;;;;;0.10;0.10;;;14.60;1.00;12.80;88045.00;;;;5014604;28;20226;-72
2022/04/14 08:20:19;;;;;;;0.10;0.10;;;14.70;1.00;12.80;88045.00;;;;5015191;28;20681;-72
2022/04/14 08:22:50;;;;;;;0.10;0.10;;;14.80;1.00;12.80;88045.00;;;;5015405;28;20212;-72
2022/04/14 08:25:20;;;;;;;0.05;0.05;;;15.00;1.00;12.80;88045.00;;;;5014396;28;20589;-72
2022/04/14 08:27:49;;;;;;;0.10;0.10;;;15.00;99.90;12.80;88045.00;;;;5013019;28;20555;-72
2022/04/14 08:30:21;;;;;;;0.10;0.10;;;15.10;99.90;12.80;88045.00;;;;5013830;28;20294;-72
2022/04/14 08:32:51;;;;;;;0.00;0.00;;;15.20;10.80;12.80;88045.00;;;;5014000;28;20192;-72
2022/04/14 08:35:21;;;;;;;0.10;0.10;;;15.30;1.00;12.80;88045.00;;;;5014003;28;20200;-72
2022/04/14 08:37:50;;;;;;;0.10;0.10;;;15.30;99.90;12.80;88045.00;;;;5013550;28;20230;-71
2022/04/14 08:40:22;;;;;;;0.10;0.10;;;15.40;94.20;12.80;88045.00;;;;5013536;28;20216;-71
2022/04/14 08:42:56;;;;;;;0.00;0.00;;;15.40;99.90;12.80;88045.00;;;;5013776;28;20387;-71
2022/04/14 08:45:31;;;;;;;0.00;0.00;;;15.40;26.70;12.80;88045.00;;;;5013777;28;20187;-71
2022/04/14 08:48:03;;;;;;;0.00;0.00;;;15.50;1.00;12.80;88045.00;;;;5013150;28;20601;-71
2022/04/14 08:50:33;;;;;;;0.00;0.00;;;15.50;1.00;12.80;88045.00;;;;5013071;28;20212;-72
2022/04/14 08:53:05;;;;;;;0.10;0.10;;;15.60;99.90;12.80;88045.00;;;;5013402;28;20192;-71
2022/04/14 08:55:34;;;;;;;0.00;0.00;;;15.60;1.00;12.80;88045.00;;;;5013105;28;20204;-73
2022/04/14 08:58:03;;;;;;;0.00;0.00;;;15.70;1.00;12.80;88045.00;;;;5013419;28;20277;-71
2022/04/14 09:00:33;;;;;;;0.10;0.10;;;15.80;1.00;12.80;88045.00;;;;5013401;28;20255;-72
2022/04/14 09:03:01;;;;;;;0.00;0.00;;;15.90;99.90;12.80;88045.00;;;;5012544;28;20271;-71
2022/04/14 09:05:30;;;;;;;0.10;0.10;;;15.90;99.90;12.80;88045.00;;;;5012881;28;20254;-72
2022/04/14 09:07:58;;;;;;;0.00;0.00;;;16.10;1.00;12.80;88045.00;;;;5012833;28;20704;-71
2022/04/14 09:10:27;;;;;;;0.10;0.10;;;16.20;99.90;12.80;88045.00;;;;5012983;28;20307;-71
2022/04/14 09:12:55;;;;;;;0.10;0.10;;;16.40;99.90;12.80;88045.00;;;;5012786;28;20199;-71
2022/04/14 09:15:23;;;;;;;0.00;0.00;;;16.40;99.90;12.80;88045.00;;;;5013559;28;20192;-72
2022/04/14 09:17:57;;;;;;;0.05;0.05;;;16.40;1.00;12.80;88045.00;;;;5012563;28;20273;-72
2022/04/14 09:20:34;;;;;;;0.10;0.10;;;16.50;1.00;12.80;88045.00;;;;5012806;28;20207;-72
2022/04/14 09:23:20;;;;;;;0.10;0.10;;;16.50;1.00;12.80;88045.00;;;;5012716;28;20207;-72
2022/04/14 09:25:51;;;;;;;0.10;0.10;;;16.60;1.00;12.80;88045.00;;;;5012992;28;20559;-72
2022/04/14 09:28:22;;;;;;;0.10;0.10;;;16.60;1.00;12.80;88045.00;;;;5012711;28;20270;-71
2022/04/14 09:31:03;;;;;;;0.00;0.00;;;16.60;1.00;12.80;88045.00;;;;5012655;28;20211;-72
2022/04/14 09:33:35;;;;;;;0.10;0.10;;;16.70;49.50;12.80;88045.00;;;;5012625;28;20278;-72
2022/04/14 09:36:13;;;;;;;0.00;0.00;;;16.80;99.90;12.80;88045.00;;;;5012396;28;20259;-72
2022/04/14 09:38:57;;;;;;;0.00;0.00;;;16.80;99.90;12.80;88045.00;;;;5013379;28;20230;-71
2022/04/14 09:41:34;;;;;;;0.00;0.00;;;16.80;1.00;12.80;88045.00;;;;5017732;28;20238;-71
2022/04/14 09:44:05;;;;;;;0.00;0.00;;;16.90;1.00;12.80;88045.00;;;;5013802;28;20214;-71
2022/04/14 09:46:34;;;;;;;0.00;0.00;;;17.00;1.00;12.80;88045.00;;;;5012770;28;20195;-72
2022/04/14 09:49:08;;;;;;;0.10;0.10;;;17.10;1.00;12.80;88045.00;;;;5012448;28;20195;-71
2022/04/14 09:51:39;;;;;;;0.00;0.00;;;17.10;99.90;12.80;88045.00;;;;5012452;28;20713;-71
2022/04/14 09:54:13;;;;;;;0.00;0.00;;;17.20;1.00;12.80;88045.00;;;;5012247;28;20559;-72
2022/04/14 09:56:46;;;;;;;0.00;0.00;;;17.20;99.90;12.80;88045.00;;;;5012043;28;20218;-72
2022/04/14 09:59:17;;;;;;;0.00;0.00;;;17.10;1.00;12.80;88045.00;;;;5012543;28;20199;-71
2022/04/14 10:01:46;;;;;;;0.00;0.00;;;17.10;1.00;12.80;88045.00;;;;5011897;28;20274;-71
2022/04/14 10:04:33;;;;;;;0.00;0.00;;;17.20;99.90;12.80;88045.00;;;;5011580;28;20200;-72
2022/04/14 10:07:11;;;;;;;0.00;0.00;;;17.20;1.00;12.80;88045.00;;;;5011790;28;20600;-71
2022/04/14 10:09:42;;;;;;;0.10;0.10;;;17.20;1.00;12.80;88045.00;;;;5012212;28;20219;-71
2022/04/14 10:12:31;;;;;;;0.00;0.00;;;17.30;99.90;12.80;88045.00;;;;5012467;28;20657;-72
2022/04/14 10:15:02;;;;;;;0.00;0.00;;;17.40;99.90;12.80;88045.00;;;;5012048;28;20200;-72
2022/04/14 10:17:33;;;;;;;0.00;0.00;;;17.50;99.90;12.80;88045.00;;;;5011735;28;20241;-71
2022/04/14 10:20:05;;;;;;;0.00;0.00;;;17.70;99.90;12.80;88045.00;;;;5011927;28;20281;-72
2022/04/14 10:22:34;;;;;;;0.00;0.00;;;17.80;99.90;12.80;88045.00;;;;5012624;28;20237;-72
2022/04/14 10:25:04;;;;;;;0.00;0.00;;;18.00;99.90;12.80;88045.00;;;;5013012;28;20739;-73
2022/04/14 10:27:33;;;;;;;0.00;0.00;;;18.20;99.90;12.80;88045.00;;;;5012474;28;20254;-73
2022/04/14 10:30:01;;;;;;;0.00;0.00;;;18.20;99.90;12.80;88045.00;;;;5012348;28;20215;-71
2022/04/14 10:32:31;;;;;;;0.00;0.00;;;18.20;99.90;12.80;88045.00;;;;5012195;28;20198;-72
2022/04/14 10:35:04;;;;;;;0.00;0.00;;;18.30;99.90;12.80;88045.00;;;;5011160;28;20188;-71
2022/04/14 10:37:38;;;;;;;0.00;0.00;;;18.30;99.90;12.80;88045.00;;;;4998786;28;20228;-72
2022/04/14 10:40:11;;;;;;;0.00;0.00;;;18.30;99.90;12.80;88045.00;;;;4993322;28;20220;-72
2022/04/14 10:42:49;;;;;;;0.00;0.00;;;18.40;99.90;12.80;88045.00;;;;4993054;28;20215;-72
2022/04/14 10:45:19;;;;;;;0.00;0.00;;;18.60;99.90;12.80;88045.00;;;;4992570;28;20230;-72
2022/04/14 10:48:09;;;;;;;0.00;0.00;;;18.70;99.90;12.80;88045.00;;;;4992262;28;20667;-71
2022/04/14 10:50:38;;;;;;;0.00;0.00;;;18.90;99.90;12.80;88045.00;;;;4989531;28;20324;-71
2022/04/14 10:53:12;;;;;;;0.00;0.00;;;19.00;99.90;12.80;88045.00;;;;4994556;28;20200;-71
2022/04/14 10:55:44;;;;;;;0.00;0.00;;;19.10;99.90;12.80;88045.00;;;;4993223;28;20196;-72
2022/04/14 10:58:53;;;;;;;0.00;0.00;;;19.20;99.90;12.80;88045.00;;;;4993477;28;20231;-71
2022/04/14 11:01:52;;;;;;;0.00;0.00;;;19.30;99.90;12.80;88045.00;;;;4993432;28;20220;-73
2022/04/14 11:04:26;;;;;;;0.03;0.03;;;19.30;1.00;12.80;88045.00;;;;4992971;28;20693;-73
2022/04/14 11:06:59;;;;;;;0.00;0.00;;;19.10;1.00;12.80;88045.00;;;;4993146;28;20231;-74
2022/04/14 11:09:52;;;;;;;0.00;0.00;;;18.90;1.00;12.80;88045.00;;;;4993039;28;20204;-73
2022/04/14 11:12:23;;;;;;;0.00;0.00;;;18.60;99.90;12.80;88045.00;;;;5008549;28;20211;-70
2022/04/14 11:14:54;;;;;;;0.05;0.05;;;18.50;99.90;12.80;88045.00;;;;5014890;28;20205;-71